sensor_id;sensor_type;location;lat;lon;timestamp;temperature;humidity
19342;DHT22;9807;48.258;12.690;2024-02-15T00:01:11;9.50;99.90
19342;DHT22;9807;48.258;12.690;2024-02-15T00:03:36;9.70;99.90
19342;DHT22;9807;48.258;12.690;2024-02-15T00:06:02;9.90;99.90
19342;DHT22;9807;48.258;12.690;2024-02-15T00:08:31;9.50;99.90
19342;DHT22;9807;48.258;12.690;2024-02-15T00:10:59;8.90;99.90
19342;DHT22;9807;48.258;12.690;2024-02-15T00:13:27;8.40;99.90
19342;DHT22;9807;48.258;12.690;2024-02-15T00:15:53;8.50;99.90
19342;DHT22;9807;48.258;12.690;2024-02-15T00:18:21;8.80;99.90
19342;DHT22;9807;48.258;12.690;2024-02-15T00:20:47;9.00;99.90
19342;DHT22;9807;48.258;12.690;2024-02-15T00:23:13;9.30;99.90
19342;DHT22;9807;48.258;12.690;2024-02-15T00:25:42;9.50;99.90
19342;DHT22;9807;48.258;12.690;2024-02-15T00:28:11;9.70;99.90
19342;DHT22;9807;48.258;12.690;2024-02-15T00:30:37;9.90;99.90
19342;DHT22;9807;48.258;12.690;2024-02-15T00:33:03;9.90;99.90
19342;DHT22;9807;48.258;12.690;2024-02-15T00:35:29;10.00;99.90
19342;DHT22;9807;48.258;12.690;2024-02-15T00:37:57;10.10;99.90
19342;DHT22;9807;48.258;12.690;2024-02-15T00:40:23;10.10;99.90
19342;DHT22;9807;48.258;12.690;2024-02-15T00:42:52;10.20;99.90
19342;DHT22;9807;48.258;12.690;2024-02-15T00:45:17;10.10;99.90
19342;DHT22;9807;48.258;12.690;2024-02-15T00:47:43;9.90;99.90
19342;DHT22;9807;48.258;12.690;2024-02-15T00:50:09;9.50;99.90
19342;DHT22;9807;48.258;12.690;2024-02-15T00:52:35;9.10;99.90
19342;DHT22;9807;48.258;12.690;2024-02-15T00:55:01;9.00;99.90
19342;DHT22;9807;48.258;12.690;2024-02-15T00:57:26;9.10;99.90
19342;DHT22;9807;48.258;12.690;2024-02-15T00:59:52;9.20;99.90
19342;DHT22;9807;48.258;12.690;2024-02-15T01:02:17;9.30;99.90
19342;DHT22;9807;48.258;12.690;2024-02-15T01:04:43;9.20;99.90
19342;DHT22;9807;48.258;12.690;2024-02-15T01:07:11;9.10;99.90
19342;DHT22;9807;48.258;12.690;2024-02-15T01:09:36;9.10;99.90
19342;DHT22;9807;48.258;12.690;2024-02-15T01:12:02;9.20;99.90
19342;DHT22;9807;48.258;12.690;2024-02-15T01:14:30;9.40;99.90
19342;DHT22;9807;48.258;12.690;2024-02-15T01:16:57;9.60;99.90
19342;DHT22;9807;48.258;12.690;2024-02-15T01:19:23;9.70;99.90
19342;DHT22;9807;48.258;12.690;2024-02-15T01:21:48;9.70;99.90
19342;DHT22;9807;48.258;12.690;2024-02-15T01:24:14;9.80;99.90
19342;DHT22;9807;48.258;12.690;2024-02-15T01:26:40;9.70;99.90
19342;DHT22;9807;48.258;12.690;2024-02-15T01:29:05;9.50;99.90
19342;DHT22;9807;48.258;12.690;2024-02-15T01:31:31;9.40;99.90
19342;DHT22;9807;48.258;12.690;2024-02-15T01:33:57;9.20;99.90
19342;DHT22;9807;48.258;12.690;2024-02-15T01:36:22;9.00;99.90
19342;DHT22;9807;48.258;12.690;2024-02-15T01:38:48;8.90;99.90
19342;DHT22;9807;48.258;12.690;2024-02-15T01:41:14;8.80;99.90
19342;DHT22;9807;48.258;12.690;2024-02-15T01:43:43;8.70;99.90
19342;DHT22;9807;48.258;12.690;2024-02-15T01:46:10;8.90;99.90
19342;DHT22;9807;48.258;12.690;2024-02-15T01:48:37;9.00;99.90
19342;DHT22;9807;48.258;12.690;2024-02-15T01:51:06;9.10;99.90
19342;DHT22;9807;48.258;12.690;2024-02-15T01:53:32;9.30;99.90
19342;DHT22;9807;48.258;12.690;2024-02-15T01:56:01;9.50;99.90
19342;DHT22;9807;48.258;12.690;2024-02-15T01:58:28;9.60;99.90
19342;DHT22;9807;48.258;12.690;2024-02-15T02:00:56;9.60;99.90
19342;DHT22;9807;48.258;12.690;2024-02-15T02:03:22;9.60;99.90
19342;DHT22;9807;48.258;12.690;2024-02-15T02:05:48;9.70;99.90
19342;DHT22;9807;48.258;12.690;2024-02-15T02:08:14;9.70;99.90
19342;DHT22;9807;48.258;12.690;2024-02-15T02:10:39;9.80;99.90
19342;DHT22;9807;48.258;12.690;2024-02-15T02:13:05;9.80;99.90
19342;DHT22;9807;48.258;12.690;2024-02-15T02:15:32;9.80;99.90
19342;DHT22;9807;48.258;12.690;2024-02-15T02:18:01;9.70;99.90
19342;DHT22;9807;48.258;12.690;2024-02-15T02:20:27;9.70;99.90
19342;DHT22;9807;48.258;12.690;2024-02-15T02:22:54;9.70;99.90
19342;DHT22;9807;48.258;12.690;2024-02-15T02:25:24;9.80;99.90
19342;DHT22;9807;48.258;12.690;2024-02-15T02:27:51;9.80;99.90
19342;DHT22;9807;48.258;12.690;2024-02-15T02:30:17;9.90;99.90
19342;DHT22;9807;48.258;12.690;2024-02-15T02:32:47;9.90;99.90
19342;DHT22;9807;48.258;12.690;2024-02-15T02:35:13;9.90;99.90
19342;DHT22;9807;48.258;12.690;2024-02-15T02:37:41;10.00;99.90
19342;DHT22;9807;48.258;12.690;2024-02-15T02:40:08;9.90;99.90
19342;DHT22;9807;48.258;12.690;2024-02-15T02:42:56;9.90;99.90
19342;DHT22;9807;48.258;12.690;2024-02-15T02:45:22;9.90;99.90
19342;DHT22;9807;48.258;12.690;2024-02-15T02:47:51;9.90;99.90
19342;DHT22;9807;48.258;12.690;2024-02-15T02:50:17;9.90;99.90
19342;DHT22;9807;48.258;12.690;2024-02-15T02:52:44;9.90;99.90
19342;DHT22;9807;48.258;12.690;2024-02-15T02:55:10;9.90;99.90
19342;DHT22;9807;48.258;12.690;2024-02-15T02:57:37;9.90;99.90
19342;DHT22;9807;48.258;12.690;2024-02-15T03:00:07;9.70;99.90
19342;DHT22;9807;48.258;12.690;2024-02-15T03:02:42;9.50;99.90
19342;DHT22;9807;48.258;12.690;2024-02-15T03:05:11;9.50;99.90
19342;DHT22;9807;48.258;12.690;2024-02-15T03:07:38;9.60;99.90
19342;DHT22;9807;48.258;12.690;2024-02-15T03:10:08;9.70;99.90
19342;DHT22;9807;48.258;12.690;2024-02-15T03:12:36;9.70;99.90
19342;DHT22;9807;48.258;12.690;2024-02-15T03:15:05;9.70;99.90
19342;DHT22;9807;48.258;12.690;2024-02-15T03:17:39;9.70;99.90
19342;DHT22;9807;48.258;12.690;2024-02-15T03:20:07;9.70;99.90
19342;DHT22;9807;48.258;12.690;2024-02-15T03:22:37;9.50;99.90
19342;DHT22;9807;48.258;12.690;2024-02-15T03:25:06;9.40;99.90
19342;DHT22;9807;48.258;12.690;2024-02-15T03:27:35;9.00;99.90
19342;DHT22;9807;48.258;12.690;2024-02-15T03:30:01;8.90;99.90
19342;DHT22;9807;48.258;12.690;2024-02-15T03:32:27;8.90;99.90
19342;DHT22;9807;48.258;12.690;2024-02-15T03:34:52;9.00;99.90
19342;DHT22;9807;48.258;12.690;2024-02-15T03:37:19;9.10;99.90
19342;DHT22;9807;48.258;12.690;2024-02-15T03:39:46;9.30;99.90
19342;DHT22;9807;48.258;12.690;2024-02-15T03:42:12;9.30;99.90
19342;DHT22;9807;48.258;12.690;2024-02-15T03:44:38;9.30;99.90
19342;DHT22;9807;48.258;12.690;2024-02-15T03:47:04;9.10;99.90
19342;DHT22;9807;48.258;12.690;2024-02-15T03:49:30;8.80;99.90
19342;DHT22;9807;48.258;12.690;2024-02-15T03:51:57;8.60;99.90
19342;DHT22;9807;48.258;12.690;2024-02-15T03:54:27;8.60;99.90
19342;DHT22;9807;48.258;12.690;2024-02-15T03:56:55;8.30;99.90
19342;DHT22;9807;48.258;12.690;2024-02-15T03:59:23;8.00;99.90
19342;DHT22;9807;48.258;12.690;2024-02-15T04:01:55;7.90;99.90
19342;DHT22;9807;48.258;12.690;2024-02-15T04:04:28;7.90;99.90
19342;DHT22;9807;48.258;12.690;2024-02-15T04:06:55;7.90;99.90
19342;DHT22;9807;48.258;12.690;2024-02-15T04:09:21;8.00;99.90
19342;DHT22;9807;48.258;12.690;2024-02-15T04:11:47;8.20;99.90
19342;DHT22;9807;48.258;12.690;2024-02-15T04:14:18;8.40;99.90
19342;DHT22;9807;48.258;12.690;2024-02-15T04:16:44;8.60;99.90
19342;DHT22;9807;48.258;12.690;2024-02-15T04:19:11;8.80;99.90
19342;DHT22;9807;48.258;12.690;2024-02-15T04:21:37;9.00;99.90
19342;DHT22;9807;48.258;12.690;2024-02-15T04:24:04;9.10;99.90
19342;DHT22;9807;48.258;12.690;2024-02-15T04:26:30;9.00;99.90
19342;DHT22;9807;48.258;12.690;2024-02-15T04:28:57;9.00;99.90
19342;DHT22;9807;48.258;12.690;2024-02-15T04:31:24;9.00;99.90
19342;DHT22;9807;48.258;12.690;2024-02-15T04:33:54;9.10;99.90
19342;DHT22;9807;48.258;12.690;2024-02-15T04:36:20;9.00;99.90
19342;DHT22;9807;48.258;12.690;2024-02-15T04:38:52;8.90;99.90
19342;DHT22;9807;48.258;12.690;2024-02-15T04:41:18;8.70;99.90
19342;DHT22;9807;48.258;12.690;2024-02-15T04:43:52;8.50;99.90
19342;DHT22;9807;48.258;12.690;2024-02-15T04:46:18;8.40;99.90
19342;DHT22;9807;48.258;12.690;2024-02-15T04:48:50;8.50;99.90
19342;DHT22;9807;48.258;12.690;2024-02-15T04:51:16;8.60;99.90
19342;DHT22;9807;48.258;12.690;2024-02-15T04:53:43;8.60;99.90
19342;DHT22;9807;48.258;12.690;2024-02-15T04:56:08;8.60;99.90
19342;DHT22;9807;48.258;12.690;2024-02-15T04:58:40;8.60;99.90
19342;DHT22;9807;48.258;12.690;2024-02-15T05:01:16;8.70;99.90
19342;DHT22;9807;48.258;12.690;2024-02-15T05:03:45;8.80;99.90
19342;DHT22;9807;48.258;12.690;2024-02-15T05:06:11;8.90;99.90
19342;DHT22;9807;48.258;12.690;2024-02-15T05:08:40;9.00;99.90
19342;DHT22;9807;48.258;12.690;2024-02-15T05:11:11;8.90;99.90
19342;DHT22;9807;48.258;12.690;2024-02-15T05:13:43;8.90;99.90
19342;DHT22;9807;48.258;12.690;2024-02-15T05:16:10;9.00;99.90
19342;DHT22;9807;48.258;12.690;2024-02-15T05:18:36;9.10;99.90
19342;DHT22;9807;48.258;12.690;2024-02-15T05:21:04;9.30;99.90
19342;DHT22;9807;48.258;12.690;2024-02-15T05:23:30;9.40;99.90
19342;DHT22;9807;48.258;12.690;2024-02-15T05:25:55;9.50;99.90
19342;DHT22;9807;48.258;12.690;2024-02-15T05:28:22;9.60;99.90
19342;DHT22;9807;48.258;12.690;2024-02-15T05:31:14;9.60;99.90
19342;DHT22;9807;48.258;12.690;2024-02-15T05:33:52;9.60;99.90
19342;DHT22;9807;48.258;12.690;2024-02-15T05:36:20;9.50;99.90
19342;DHT22;9807;48.258;12.690;2024-02-15T05:38:53;9.40;99.90
19342;DHT22;9807;48.258;12.690;2024-02-15T05:41:25;9.30;99.90
19342;DHT22;9807;48.258;12.690;2024-02-15T05:43:50;9.30;99.90
19342;DHT22;9807;48.258;12.690;2024-02-15T05:46:22;9.40;99.90
19342;DHT22;9807;48.258;12.690;2024-02-15T05:48:48;9.50;99.90
19342;DHT22;9807;48.258;12.690;2024-02-15T05:51:14;9.60;99.90
19342;DHT22;9807;48.258;12.690;2024-02-15T05:53:40;9.50;99.90
19342;DHT22;9807;48.258;12.690;2024-02-15T05:56:08;9.30;99.90
19342;DHT22;9807;48.258;12.690;2024-02-15T05:58:34;9.10;99.90
19342;DHT22;9807;48.258;12.690;2024-02-15T06:01:01;9.00;99.90
19342;DHT22;9807;48.258;12.690;2024-02-15T06:03:31;8.80;99.90
19342;DHT22;9807;48.258;12.690;2024-02-15T06:06:00;8.50;99.90
19342;DHT22;9807;48.258;12.690;2024-02-15T06:08:30;8.30;99.90
19342;DHT22;9807;48.258;12.690;2024-02-15T06:10:56;8.10;99.90
19342;DHT22;9807;48.258;12.690;2024-02-15T06:13:23;8.10;99.90
19342;DHT22;9807;48.258;12.690;2024-02-15T06:15:52;8.20;99.90
19342;DHT22;9807;48.258;12.690;2024-02-15T06:18:28;8.00;99.90
19342;DHT22;9807;48.258;12.690;2024-02-15T06:20:58;8.00;99.90
19342;DHT22;9807;48.258;12.690;2024-02-15T06:23:27;8.20;99.90
19342;DHT22;9807;48.258;12.690;2024-02-15T06:25:55;8.50;99.90
19342;DHT22;9807;48.258;12.690;2024-02-15T06:28:28;8.70;99.90
19342;DHT22;9807;48.258;12.690;2024-02-15T06:31:23;8.50;99.90
19342;DHT22;9807;48.258;12.690;2024-02-15T06:34:07;8.60;99.90
19342;DHT22;9807;48.258;12.690;2024-02-15T06:36:55;8.80;99.90
19342;DHT22;9807;48.258;12.690;2024-02-15T06:39:41;8.90;99.90
19342;DHT22;9807;48.258;12.690;2024-02-15T06:42:11;9.00;99.90
19342;DHT22;9807;48.258;12.690;2024-02-15T06:44:37;9.00;99.90
19342;DHT22;9807;48.258;12.690;2024-02-15T06:47:06;9.00;99.90
19342;DHT22;9807;48.258;12.690;2024-02-15T06:49:32;9.10;99.90
19342;DHT22;9807;48.258;12.690;2024-02-15T06:51:59;9.20;99.90
19342;DHT22;9807;48.258;12.690;2024-02-15T06:54:28;9.30;99.90
19342;DHT22;9807;48.258;12.690;2024-02-15T06:56:54;9.50;99.90
19342;DHT22;9807;48.258;12.690;2024-02-15T06:59:22;9.60;99.90
19342;DHT22;9807;48.258;12.690;2024-02-15T07:01:51;9.70;99.90
19342;DHT22;9807;48.258;12.690;2024-02-15T07:04:20;9.80;99.90
19342;DHT22;9807;48.258;12.690;2024-02-15T07:06:46;9.80;99.90
19342;DHT22;9807;48.258;12.690;2024-02-15T07:09:14;9.90;99.90
19342;DHT22;9807;48.258;12.690;2024-02-15T07:11:41;9.90;99.90
19342;DHT22;9807;48.258;12.690;2024-02-15T07:14:06;9.70;99.90
19342;DHT22;9807;48.258;12.690;2024-02-15T07:16:34;9.60;99.90
19342;DHT22;9807;48.258;12.690;2024-02-15T07:19:00;9.70;99.90
19342;DHT22;9807;48.258;12.690;2024-02-15T07:21:26;9.70;99.90
19342;DHT22;9807;48.258;12.690;2024-02-15T07:23:56;9.80;99.90
19342;DHT22;9807;48.258;12.690;2024-02-15T07:26:23;9.90;99.90
19342;DHT22;9807;48.258;12.690;2024-02-15T07:28:54;9.90;99.90
19342;DHT22;9807;48.258;12.690;2024-02-15T07:31:23;9.80;99.90
19342;DHT22;9807;48.258;12.690;2024-02-15T07:33:53;9.90;99.90
19342;DHT22;9807;48.258;12.690;2024-02-15T07:36:22;9.90;99.90
19342;DHT22;9807;48.258;12.690;2024-02-15T07:38:49;10.00;99.90
19342;DHT22;9807;48.258;12.690;2024-02-15T07:41:17;10.10;99.90
19342;DHT22;9807;48.258;12.690;2024-02-15T07:43:43;9.90;99.90
19342;DHT22;9807;48.258;12.690;2024-02-15T07:46:13;9.60;99.90
19342;DHT22;9807;48.258;12.690;2024-02-15T07:48:39;9.70;99.90
19342;DHT22;9807;48.258;12.690;2024-02-15T07:51:09;9.50;99.90
19342;DHT22;9807;48.258;12.690;2024-02-15T07:53:37;9.60;99.90
19342;DHT22;9807;48.258;12.690;2024-02-15T07:56:02;9.40;99.90
19342;DHT22;9807;48.258;12.690;2024-02-15T07:58:28;9.40;99.90
19342;DHT22;9807;48.258;12.690;2024-02-15T08:00:54;9.40;99.90
19342;DHT22;9807;48.258;12.690;2024-02-15T08:03:20;9.50;99.90
19342;DHT22;9807;48.258;12.690;2024-02-15T08:05:45;9.60;99.90
19342;DHT22;9807;48.258;12.690;2024-02-15T08:08:11;9.60;99.90
19342;DHT22;9807;48.258;12.690;2024-02-15T08:10:37;9.80;99.90
19342;DHT22;9807;48.258;12.690;2024-02-15T08:13:03;9.80;99.90
19342;DHT22;9807;48.258;12.690;2024-02-15T08:15:29;9.60;99.90
19342;DHT22;9807;48.258;12.690;2024-02-15T08:17:54;9.80;99.90
19342;DHT22;9807;48.258;12.690;2024-02-15T08:20:20;10.10;99.90
19342;DHT22;9807;48.258;12.690;2024-02-15T08:22:52;10.30;99.90
19342;DHT22;9807;48.258;12.690;2024-02-15T08:25:18;10.60;99.90
19342;DHT22;9807;48.258;12.690;2024-02-15T08:27:46;10.70;99.90
19342;DHT22;9807;48.258;12.690;2024-02-15T08:30:15;10.80;99.90
19342;DHT22;9807;48.258;12.690;2024-02-15T08:32:41;10.80;99.90
19342;DHT22;9807;48.258;12.690;2024-02-15T08:35:11;10.70;99.90
19342;DHT22;9807;48.258;12.690;2024-02-15T08:37:38;10.50;99.90
19342;DHT22;9807;48.258;12.690;2024-02-15T08:40:05;10.30;99.90
19342;DHT22;9807;48.258;12.690;2024-02-15T08:42:39;10.10;99.90
19342;DHT22;9807;48.258;12.690;2024-02-15T08:45:06;9.80;99.90
19342;DHT22;9807;48.258;12.690;2024-02-15T08:47:37;9.60;99.90
19342;DHT22;9807;48.258;12.690;2024-02-15T08:50:04;9.40;99.90
19342;DHT22;9807;48.258;12.690;2024-02-15T08:52:30;9.40;99.90
19342;DHT22;9807;48.258;12.690;2024-02-15T08:54:56;9.50;99.90
19342;DHT22;9807;48.258;12.690;2024-02-15T08:57:25;9.80;99.90
19342;DHT22;9807;48.258;12.690;2024-02-15T08:59:52;10.10;99.90
19342;DHT22;9807;48.258;12.690;2024-02-15T09:02:18;10.40;99.90
19342;DHT22;9807;48.258;12.690;2024-02-15T09:04:44;10.60;99.90
19342;DHT22;9807;48.258;12.690;2024-02-15T09:07:10;10.70;99.90
19342;DHT22;9807;48.258;12.690;2024-02-15T09:09:36;10.90;99.90
19342;DHT22;9807;48.258;12.690;2024-02-15T09:12:05;11.20;99.90
19342;DHT22;9807;48.258;12.690;2024-02-15T09:14:34;11.30;99.90
19342;DHT22;9807;48.258;12.690;2024-02-15T09:17:00;11.40;99.90
19342;DHT22;9807;48.258;12.690;2024-02-15T09:19:26;11.30;99.90
19342;DHT22;9807;48.258;12.690;2024-02-15T09:21:52;11.20;99.90
19342;DHT22;9807;48.258;12.690;2024-02-15T09:24:22;11.00;99.90
19342;DHT22;9807;48.258;12.690;2024-02-15T09:26:50;10.80;99.90
19342;DHT22;9807;48.258;12.690;2024-02-15T09:29:18;10.60;99.90
19342;DHT22;9807;48.258;12.690;2024-02-15T09:31:47;10.40;99.90
19342;DHT22;9807;48.258;12.690;2024-02-15T09:34:12;10.30;99.90
19342;DHT22;9807;48.258;12.690;2024-02-15T09:36:38;10.20;99.90
19342;DHT22;9807;48.258;12.690;2024-02-15T09:39:05;10.10;99.90
19342;DHT22;9807;48.258;12.690;2024-02-15T09:41:31;10.10;99.90
19342;DHT22;9807;48.258;12.690;2024-02-15T09:43:59;10.20;99.90
19342;DHT22;9807;48.258;12.690;2024-02-15T09:46:27;10.30;99.90
19342;DHT22;9807;48.258;12.690;2024-02-15T09:48:56;10.40;99.90
19342;DHT22;9807;48.258;12.690;2024-02-15T09:51:26;10.50;99.90
19342;DHT22;9807;48.258;12.690;2024-02-15T09:53:52;10.80;99.90
19342;DHT22;9807;48.258;12.690;2024-02-15T09:56:20;10.90;99.90
19342;DHT22;9807;48.258;12.690;2024-02-15T09:58:47;11.00;99.90
19342;DHT22;9807;48.258;12.690;2024-02-15T10:01:13;11.00;99.90
19342;DHT22;9807;48.258;12.690;2024-02-15T10:03:41;11.10;99.90
19342;DHT22;9807;48.258;12.690;2024-02-15T10:06:06;11.20;99.90
19342;DHT22;9807;48.258;12.690;2024-02-15T10:08:32;11.30;99.90
19342;DHT22;9807;48.258;12.690;2024-02-15T10:11:08;11.40;99.90
19342;DHT22;9807;48.258;12.690;2024-02-15T10:13:34;11.50;99.90
19342;DHT22;9807;48.258;12.690;2024-02-15T10:16:14;11.60;99.90
19342;DHT22;9807;48.258;12.690;2024-02-15T10:18:40;11.90;99.90
19342;DHT22;9807;48.258;12.690;2024-02-15T10:21:06;12.10;99.90
19342;DHT22;9807;48.258;12.690;2024-02-15T10:23:31;12.30;99.90
19342;DHT22;9807;48.258;12.690;2024-02-15T10:25:57;12.50;99.90
19342;DHT22;9807;48.258;12.690;2024-02-15T10:28:24;12.70;99.90
19342;DHT22;9807;48.258;12.690;2024-02-15T10:30:52;12.80;99.90
19342;DHT22;9807;48.258;12.690;2024-02-15T10:33:29;12.80;99.90
19342;DHT22;9807;48.258;12.690;2024-02-15T10:36:08;12.90;99.90
19342;DHT22;9807;48.258;12.690;2024-02-15T10:38:34;12.90;99.90
19342;DHT22;9807;48.258;12.690;2024-02-15T10:41:07;12.90;99.90
19342;DHT22;9807;48.258;12.690;2024-02-15T10:43:34;12.90;99.90
19342;DHT22;9807;48.258;12.690;2024-02-15T10:46:02;13.00;99.90
19342;DHT22;9807;48.258;12.690;2024-02-15T10:48:28;13.20;99.90
19342;DHT22;9807;48.258;12.690;2024-02-15T10:50:56;13.30;99.90
19342;DHT22;9807;48.258;12.690;2024-02-15T10:53:26;13.40;99.90
19342;DHT22;9807;48.258;12.690;2024-02-15T10:58:44;13.60;99.90
19342;DHT22;9807;48.258;12.690;2024-02-15T11:01:12;13.60;99.90
19342;DHT22;9807;48.258;12.690;2024-02-15T11:03:52;13.60;99.90
19342;DHT22;9807;48.258;12.690;2024-02-15T11:06:24;13.60;99.90
19342;DHT22;9807;48.258;12.690;2024-02-15T11:08:52;13.70;99.90
19342;DHT22;9807;48.258;12.690;2024-02-15T11:11:22;13.80;99.90
19342;DHT22;9807;48.258;12.690;2024-02-15T11:13:48;13.90;99.90
19342;DHT22;9807;48.258;12.690;2024-02-15T11:16:42;14.00;99.90
19342;DHT22;9807;48.258;12.690;2024-02-15T11:19:43;14.00;99.90
19342;DHT22;9807;48.258;12.690;2024-02-15T11:22:16;14.00;99.90
19342;DHT22;9807;48.258;12.690;2024-02-15T11:24:54;14.00;99.90
19342;DHT22;9807;48.258;12.690;2024-02-15T11:27:27;13.90;99.90
19342;DHT22;9807;48.258;12.690;2024-02-15T11:29:58;14.00;99.90
19342;DHT22;9807;48.258;12.690;2024-02-15T11:32:36;14.00;99.90
19342;DHT22;9807;48.258;12.690;2024-02-15T11:35:08;14.10;99.90
19342;DHT22;9807;48.258;12.690;2024-02-15T11:40:19;14.10;99.90
19342;DHT22;9807;48.258;12.690;2024-02-15T11:42:49;14.20;99.90
19342;DHT22;9807;48.258;12.690;2024-02-15T11:45:16;14.30;99.90
19342;DHT22;9807;48.258;12.690;2024-02-15T11:47:47;14.40;99.90
19342;DHT22;9807;48.258;12.690;2024-02-15T11:50:14;14.50;99.90
19342;DHT22;9807;48.258;12.690;2024-02-15T11:52:44;14.60;99.90
19342;DHT22;9807;48.258;12.690;2024-02-15T11:55:12;14.60;99.90
19342;DHT22;9807;48.258;12.690;2024-02-15T11:57:42;14.60;99.90
19342;DHT22;9807;48.258;12.690;2024-02-15T12:00:23;14.60;99.90
19342;DHT22;9807;48.258;12.690;2024-02-15T12:03:08;14.60;99.90
19342;DHT22;9807;48.258;12.690;2024-02-15T12:05:52;14.70;99.90
19342;DHT22;9807;48.258;12.690;2024-02-15T12:08:38;14.80;99.90
19342;DHT22;9807;48.258;12.690;2024-02-15T12:11:22;14.70;99.90
19342;DHT22;9807;48.258;12.690;2024-02-15T12:14:06;14.70;99.90
19342;DHT22;9807;48.258;12.690;2024-02-15T12:17:20;14.80;99.90
19342;DHT22;9807;48.258;12.690;2024-02-15T12:20:08;14.80;99.90
19342;DHT22;9807;48.258;12.690;2024-02-15T12:22:45;14.90;99.90
19342;DHT22;9807;48.258;12.690;2024-02-15T12:25:16;15.00;99.90
19342;DHT22;9807;48.258;12.690;2024-02-15T12:27:43;15.00;99.90
19342;DHT22;9807;48.258;12.690;2024-02-15T12:30:16;14.90;99.90
19342;DHT22;9807;48.258;12.690;2024-02-15T12:32:51;14.90;99.90
19342;DHT22;9807;48.258;12.690;2024-02-15T12:35:21;14.90;99.90
19342;DHT22;9807;48.258;12.690;2024-02-15T12:38:09;15.00;99.90
19342;DHT22;9807;48.258;12.690;2024-02-15T12:40:39;15.10;99.90
19342;DHT22;9807;48.258;12.690;2024-02-15T12:43:09;15.00;99.90
19342;DHT22;9807;48.258;12.690;2024-02-15T12:45:41;15.10;99.90
19342;DHT22;9807;48.258;12.690;2024-02-15T12:48:08;15.10;99.90
19342;DHT22;9807;48.258;12.690;2024-02-15T12:50:34;15.10;99.90
19342;DHT22;9807;48.258;12.690;2024-02-15T12:53:01;15.20;99.90
19342;DHT22;9807;48.258;12.690;2024-02-15T12:55:35;15.20;99.90
19342;DHT22;9807;48.258;12.690;2024-02-15T12:58:03;15.20;99.90
19342;DHT22;9807;48.258;12.690;2024-02-15T13:00:30;15.10;99.90
19342;DHT22;9807;48.258;12.690;2024-02-15T13:03:03;15.20;99.90
19342;DHT22;9807;48.258;12.690;2024-02-15T13:05:30;15.30;99.90
19342;DHT22;9807;48.258;12.690;2024-02-15T13:07:57;15.20;99.90
19342;DHT22;9807;48.258;12.690;2024-02-15T13:10:28;15.30;99.90
19342;DHT22;9807;48.258;12.690;2024-02-15T13:12:55;15.20;99.90
19342;DHT22;9807;48.258;12.690;2024-02-15T13:15:22;15.20;99.90
19342;DHT22;9807;48.258;12.690;2024-02-15T13:17:53;15.20;99.90
19342;DHT22;9807;48.258;12.690;2024-02-15T13:20:24;15.20;99.90
19342;DHT22;9807;48.258;12.690;2024-02-15T13:22:58;15.20;99.90
19342;DHT22;9807;48.258;12.690;2024-02-15T13:25:31;15.30;99.90
19342;DHT22;9807;48.258;12.690;2024-02-15T13:28:00;15.20;99.90
19342;DHT22;9807;48.258;12.690;2024-02-15T13:30:25;15.10;99.90
19342;DHT22;9807;48.258;12.690;2024-02-15T13:32:53;15.20;99.90
19342;DHT22;9807;48.258;12.690;2024-02-15T13:35:22;15.30;99.90
19342;DHT22;9807;48.258;12.690;2024-02-15T13:37:49;15.30;99.90
19342;DHT22;9807;48.258;12.690;2024-02-15T13:40:18;15.30;99.90
19342;DHT22;9807;48.258;12.690;2024-02-15T13:42:46;15.30;99.90
19342;DHT22;9807;48.258;12.690;2024-02-15T13:45:23;15.40;99.90
19342;DHT22;9807;48.258;12.690;2024-02-15T13:47:50;15.30;99.90
19342;DHT22;9807;48.258;12.690;2024-02-15T13:50:16;15.30;99.90
19342;DHT22;9807;48.258;12.690;2024-02-15T13:52:44;15.30;99.90
19342;DHT22;9807;48.258;12.690;2024-02-15T13:55:14;15.40;99.90
19342;DHT22;9807;48.258;12.690;2024-02-15T13:57:41;15.30;99.90
19342;DHT22;9807;48.258;12.690;2024-02-15T14:00:11;15.30;99.90
19342;DHT22;9807;48.258;12.690;2024-02-15T14:02:47;15.20;99.90
19342;DHT22;9807;48.258;12.690;2024-02-15T14:05:13;15.20;99.90
19342;DHT22;9807;48.258;12.690;2024-02-15T14:07:39;15.30;99.90
19342;DHT22;9807;48.258;12.690;2024-02-15T14:10:06;15.30;99.90
19342;DHT22;9807;48.258;12.690;2024-02-15T14:12:33;15.20;99.90
19342;DHT22;9807;48.258;12.690;2024-02-15T14:15:00;15.30;99.90
19342;DHT22;9807;48.258;12.690;2024-02-15T14:17:26;15.30;99.90
19342;DHT22;9807;48.258;12.690;2024-02-15T14:19:53;15.40;99.90
19342;DHT22;9807;48.258;12.690;2024-02-15T14:22:20;15.40;99.90
19342;DHT22;9807;48.258;12.690;2024-02-15T14:24:49;15.40;99.90
19342;DHT22;9807;48.258;12.690;2024-02-15T14:27:15;15.30;99.90
19342;DHT22;9807;48.258;12.690;2024-02-15T14:29:41;15.30;99.90
19342;DHT22;9807;48.258;12.690;2024-02-15T14:32:25;15.20;99.90
19342;DHT22;9807;48.258;12.690;2024-02-15T14:35:09;15.20;99.90
19342;DHT22;9807;48.258;12.690;2024-02-15T14:37:35;15.20;99.90
19342;DHT22;9807;48.258;12.690;2024-02-15T14:40:02;15.10;99.90
19342;DHT22;9807;48.258;12.690;2024-02-15T14:42:29;15.20;99.90
19342;DHT22;9807;48.258;12.690;2024-02-15T14:44:54;15.20;99.90
19342;DHT22;9807;48.258;12.690;2024-02-15T14:47:20;15.20;99.90
19342;DHT22;9807;48.258;12.690;2024-02-15T14:49:46;15.20;99.90
19342;DHT22;9807;48.258;12.690;2024-02-15T14:52:11;15.20;99.90
19342;DHT22;9807;48.258;12.690;2024-02-15T14:54:38;15.20;99.90
19342;DHT22;9807;48.258;12.690;2024-02-15T14:57:04;15.20;99.90
19342;DHT22;9807;48.258;12.690;2024-02-15T14:59:30;15.20;99.90
19342;DHT22;9807;48.258;12.690;2024-02-15T15:01:56;15.10;99.90
19342;DHT22;9807;48.258;12.690;2024-02-15T15:04:23;15.10;99.90
19342;DHT22;9807;48.258;12.690;2024-02-15T15:06:49;15.10;99.90
19342;DHT22;9807;48.258;12.690;2024-02-15T15:09:34;15.00;99.90
19342;DHT22;9807;48.258;12.690;2024-02-15T15:12:18;15.10;99.90
19342;DHT22;9807;48.258;12.690;2024-02-15T15:15:03;15.00;99.90
19342;DHT22;9807;48.258;12.690;2024-02-15T15:17:30;15.00;99.90
19342;DHT22;9807;48.258;12.690;2024-02-15T15:19:56;15.00;99.90
19342;DHT22;9807;48.258;12.690;2024-02-15T15:22:22;15.00;99.90
19342;DHT22;9807;48.258;12.690;2024-02-15T15:24:47;15.00;99.90
19342;DHT22;9807;48.258;12.690;2024-02-15T15:27:13;14.90;99.90
19342;DHT22;9807;48.258;12.690;2024-02-15T15:29:40;14.90;99.90
19342;DHT22;9807;48.258;12.690;2024-02-15T15:32:06;14.90;99.90
19342;DHT22;9807;48.258;12.690;2024-02-15T15:34:33;14.90;99.90
19342;DHT22;9807;48.258;12.690;2024-02-15T15:36:59;14.90;99.90
19342;DHT22;9807;48.258;12.690;2024-02-15T15:39:25;14.90;99.90
19342;DHT22;9807;48.258;12.690;2024-02-15T15:41:52;14.80;99.90
19342;DHT22;9807;48.258;12.690;2024-02-15T15:44:19;14.90;99.90
19342;DHT22;9807;48.258;12.690;2024-02-15T15:46:45;14.80;99.90
19342;DHT22;9807;48.258;12.690;2024-02-15T15:49:11;14.80;99.90
19342;DHT22;9807;48.258;12.690;2024-02-15T15:51:41;14.70;99.90
19342;DHT22;9807;48.258;12.690;2024-02-15T15:54:08;14.70;99.90
19342;DHT22;9807;48.258;12.690;2024-02-15T15:56:33;14.70;99.90